DCA weather

Ronald Reagan Washington National Airport
Washington, District of Columbia, United States

Public forecast

Using degrees Fahrenheit for public forecast. Weather courtesy of forecast.io.

METAR (pilot weather report)

Retrieved 2017/06/28 03:52 UTC (1 hour ago):

KDCA 280352Z 33007KT 10SM FEW120 SCT250 21/08 A3010 RMK AO2 SLP191 T02060083

TAF (pilot weather forecast)

Forecast is more than 12 hours old.

Retrieved 2017/06/27 00:36 UTC (1 day ago):

TAF KDCA 272334Z 2800/2824 30008KT P6SM SCT070 FM281700 27004KT P6SM FEW250 FM282100 21009KT P6SM FEW250